sensor_id;sensor_type;location;lat;lon;timestamp;pressure;altitude;pressure_sealevel;temperature
18219;BMP180;9234;49.344;11.120;2023-02-11T00:01:31;99430.00;;;-3.20
18219;BMP180;9234;49.344;11.120;2023-02-11T00:04:03;99414.00;;;-3.20
18219;BMP180;9234;49.344;11.120;2023-02-11T00:06:33;99421.00;;;-3.20
18219;BMP180;9234;49.344;11.120;2023-02-11T00:09:03;99405.00;;;-3.20
18219;BMP180;9234;49.344;11.120;2023-02-11T00:11:31;99409.00;;;-3.20
18219;BMP180;9234;49.344;11.120;2023-02-11T00:14:03;99427.00;;;-3.20
18219;BMP180;9234;49.344;11.120;2023-02-11T00:16:31;99410.00;;;-3.30
18219;BMP180;9234;49.344;11.120;2023-02-11T00:19:02;99411.00;;;-3.30
18219;BMP180;9234;49.344;11.120;2023-02-11T00:21:33;99407.00;;;-3.30
18219;BMP180;9234;49.344;11.120;2023-02-11T00:24:01;99413.00;;;-3.30
18219;BMP180;9234;49.344;11.120;2023-02-11T00:26:33;99393.00;;;-3.30
18219;BMP180;9234;49.344;11.120;2023-02-11T00:29:03;99384.00;;;-3.30
18219;BMP180;9234;49.344;11.120;2023-02-11T00:31:33;99390.00;;;-3.40
18219;BMP180;9234;49.344;11.120;2023-02-11T00:34:03;99391.00;;;-3.40
18219;BMP180;9234;49.344;11.120;2023-02-11T00:36:31;99391.00;;;-3.40
18219;BMP180;9234;49.344;11.120;2023-02-11T00:38:59;99397.00;;;-3.40
18219;BMP180;9234;49.344;11.120;2023-02-11T00:41:28;99401.00;;;-3.40
18219;BMP180;9234;49.344;11.120;2023-02-11T00:43:58;99398.00;;;-3.40
18219;BMP180;9234;49.344;11.120;2023-02-11T00:46:27;99380.00;;;-3.40
18219;BMP180;9234;49.344;11.120;2023-02-11T00:48:55;99381.00;;;-3.40
18219;BMP180;9234;49.344;11.120;2023-02-11T00:51:26;99377.00;;;-3.40
18219;BMP180;9234;49.344;11.120;2023-02-11T00:53:55;99384.00;;;-3.40
18219;BMP180;9234;49.344;11.120;2023-02-11T00:56:23;99368.00;;;-3.40
18219;BMP180;9234;49.344;11.120;2023-02-11T00:58:52;99379.00;;;-3.40
18219;BMP180;9234;49.344;11.120;2023-02-11T01:01:20;99377.00;;;-3.40
18219;BMP180;9234;49.344;11.120;2023-02-11T01:03:49;99374.00;;;-3.40
18219;BMP180;9234;49.344;11.120;2023-02-11T01:06:18;99384.00;;;-3.40
18219;BMP180;9234;49.344;11.120;2023-02-11T01:08:47;99382.00;;;-3.40
18219;BMP180;9234;49.344;11.120;2023-02-11T01:11:18;99363.00;;;-3.40
18219;BMP180;9234;49.344;11.120;2023-02-11T01:13:48;99378.00;;;-3.40
18219;BMP180;9234;49.344;11.120;2023-02-11T01:16:18;99374.00;;;-3.50
18219;BMP180;9234;49.344;11.120;2023-02-11T01:18:47;99365.00;;;-3.50
18219;BMP180;9234;49.344;11.120;2023-02-11T01:21:17;99367.00;;;-3.50
18219;BMP180;9234;49.344;11.120;2023-02-11T01:23:47;99348.00;;;-3.50
18219;BMP180;9234;49.344;11.120;2023-02-11T01:26:15;99362.00;;;-3.40
18219;BMP180;9234;49.344;11.120;2023-02-11T01:28:43;99345.00;;;-3.50
18219;BMP180;9234;49.344;11.120;2023-02-11T01:31:12;99354.00;;;-3.40
18219;BMP180;9234;49.344;11.120;2023-02-11T01:33:40;99345.00;;;-3.40
18219;BMP180;9234;49.344;11.120;2023-02-11T01:36:10;99343.00;;;-3.40
18219;BMP180;9234;49.344;11.120;2023-02-11T01:38:39;99345.00;;;-3.50
18219;BMP180;9234;49.344;11.120;2023-02-11T01:41:12;99334.00;;;-3.50
18219;BMP180;9234;49.344;11.120;2023-02-11T01:43:44;99335.00;;;-3.40
18219;BMP180;9234;49.344;11.120;2023-02-11T01:46:32;99320.00;;;-3.40
18219;BMP180;9234;49.344;11.120;2023-02-11T01:49:06;99317.00;;;-3.40
18219;BMP180;9234;49.344;11.120;2023-02-11T01:51:41;99325.00;;;-3.40
18219;BMP180;9234;49.344;11.120;2023-02-11T01:54:15;99323.00;;;-3.30
18219;BMP180;9234;49.344;11.120;2023-02-11T01:57:07;99325.00;;;-3.30
18219;BMP180;9234;49.344;11.120;2023-02-11T02:00:04;99326.00;;;-3.30
18219;BMP180;9234;49.344;11.120;2023-02-11T02:02:48;99321.00;;;-3.30
18219;BMP180;9234;49.344;11.120;2023-02-11T02:05:27;99318.00;;;-3.30
18219;BMP180;9234;49.344;11.120;2023-02-11T02:08:06;99316.00;;;-3.30
18219;BMP180;9234;49.344;11.120;2023-02-11T02:10:43;99305.00;;;-3.20
18219;BMP180;9234;49.344;11.120;2023-02-11T02:13:14;99314.00;;;-3.20
18219;BMP180;9234;49.344;11.120;2023-02-11T02:15:49;99300.00;;;-3.20
18219;BMP180;9234;49.344;11.120;2023-02-11T02:18:34;99318.00;;;-3.20
18219;BMP180;9234;49.344;11.120;2023-02-11T02:21:54;99308.00;;;-3.10
18219;BMP180;9234;49.344;11.120;2023-02-11T02:24:58;99298.00;;;-3.10
18219;BMP180;9234;49.344;11.120;2023-02-11T02:27:46;99299.00;;;-3.10
18219;BMP180;9234;49.344;11.120;2023-02-11T02:33:59;99305.00;;;-2.90
18219;BMP180;9234;49.344;11.120;2023-02-11T02:36:38;99297.00;;;-2.90
18219;BMP180;9234;49.344;11.120;2023-02-11T02:39:14;99286.00;;;-2.80
18219;BMP180;9234;49.344;11.120;2023-02-11T02:41:47;99283.00;;;-2.80
18219;BMP180;9234;49.344;11.120;2023-02-11T02:44:17;99277.00;;;-2.70
18219;BMP180;9234;49.344;11.120;2023-02-11T02:46:45;99271.00;;;-2.70
18219;BMP180;9234;49.344;11.120;2023-02-11T02:49:16;99255.00;;;-2.70
18219;BMP180;9234;49.344;11.120;2023-02-11T02:52:05;99266.00;;;-2.70
18219;BMP180;9234;49.344;11.120;2023-02-11T02:55:19;99269.00;;;-2.70
18219;BMP180;9234;49.344;11.120;2023-02-11T03:01:27;99274.00;;;-2.60
18219;BMP180;9234;49.344;11.120;2023-02-11T03:04:05;99282.00;;;-2.60
18219;BMP180;9234;49.344;11.120;2023-02-11T03:06:50;99281.00;;;-2.60
18219;BMP180;9234;49.344;11.120;2023-02-11T03:09:26;99272.00;;;-2.60
18219;BMP180;9234;49.344;11.120;2023-02-11T03:11:55;99274.00;;;-2.60
18219;BMP180;9234;49.344;11.120;2023-02-11T03:14:27;99265.00;;;-2.60
18219;BMP180;9234;49.344;11.120;2023-02-11T03:17:00;99273.00;;;-2.60
18219;BMP180;9234;49.344;11.120;2023-02-11T03:19:35;99264.00;;;-2.50
18219;BMP180;9234;49.344;11.120;2023-02-11T03:22:11;99276.00;;;-2.50
18219;BMP180;9234;49.344;11.120;2023-02-11T03:24:41;99272.00;;;-2.50
18219;BMP180;9234;49.344;11.120;2023-02-11T03:27:17;99269.00;;;-2.40
18219;BMP180;9234;49.344;11.120;2023-02-11T03:29:53;99288.00;;;-2.30
18219;BMP180;9234;49.344;11.120;2023-02-11T03:32:27;99275.00;;;-2.30
18219;BMP180;9234;49.344;11.120;2023-02-11T03:34:59;99285.00;;;-2.20
18219;BMP180;9234;49.344;11.120;2023-02-11T03:37:35;99281.00;;;-2.10
18219;BMP180;9234;49.344;11.120;2023-02-11T03:40:10;99290.00;;;-2.10
18219;BMP180;9234;49.344;11.120;2023-02-11T03:42:47;99284.00;;;-2.00
18219;BMP180;9234;49.344;11.120;2023-02-11T03:45:20;99278.00;;;-1.90
18219;BMP180;9234;49.344;11.120;2023-02-11T03:47:55;99280.00;;;-1.80
18219;BMP180;9234;49.344;11.120;2023-02-11T03:50:28;99282.00;;;-1.80
18219;BMP180;9234;49.344;11.120;2023-02-11T03:53:01;99280.00;;;-1.70
18219;BMP180;9234;49.344;11.120;2023-02-11T03:55:35;99287.00;;;-1.60
18219;BMP180;9234;49.344;11.120;2023-02-11T03:58:05;99261.00;;;-1.50
18219;BMP180;9234;49.344;11.120;2023-02-11T04:00:37;99269.00;;;-1.50
18219;BMP180;9234;49.344;11.120;2023-02-11T04:03:08;99263.00;;;-1.40
18219;BMP180;9234;49.344;11.120;2023-02-11T04:05:37;99265.00;;;-1.30
18219;BMP180;9234;49.344;11.120;2023-02-11T04:08:07;99268.00;;;-1.30
18219;BMP180;9234;49.344;11.120;2023-02-11T04:10:35;99261.00;;;-1.20
18219;BMP180;9234;49.344;11.120;2023-02-11T04:13:04;99264.00;;;-1.20
18219;BMP180;9234;49.344;11.120;2023-02-11T04:15:32;99269.00;;;-1.10
18219;BMP180;9234;49.344;11.120;2023-02-11T04:18:00;99255.00;;;-1.10
18219;BMP180;9234;49.344;11.120;2023-02-11T04:20:29;99255.00;;;-1.10
18219;BMP180;9234;49.344;11.120;2023-02-11T04:22:57;99256.00;;;-1.00
18219;BMP180;9234;49.344;11.120;2023-02-11T04:25:27;99229.00;;;-1.00
18219;BMP180;9234;49.344;11.120;2023-02-11T04:27:55;99232.00;;;-0.90
18219;BMP180;9234;49.344;11.120;2023-02-11T04:30:23;99241.00;;;-0.90
18219;BMP180;9234;49.344;11.120;2023-02-11T04:32:51;99242.00;;;-0.80
18219;BMP180;9234;49.344;11.120;2023-02-11T04:35:20;99243.00;;;-0.80
18219;BMP180;9234;49.344;11.120;2023-02-11T04:37:49;99237.00;;;-0.80
18219;BMP180;9234;49.344;11.120;2023-02-11T04:40:17;99243.00;;;-0.80
18219;BMP180;9234;49.344;11.120;2023-02-11T04:42:47;99239.00;;;-0.90
18219;BMP180;9234;49.344;11.120;2023-02-11T04:45:15;99226.00;;;-0.90
18219;BMP180;9234;49.344;11.120;2023-02-11T04:47:43;99206.00;;;-0.90
18219;BMP180;9234;49.344;11.120;2023-02-11T04:50:11;99199.00;;;-0.90
18219;BMP180;9234;49.344;11.120;2023-02-11T04:52:40;99204.00;;;-0.90
18219;BMP180;9234;49.344;11.120;2023-02-11T04:55:08;99203.00;;;-0.90
18219;BMP180;9234;49.344;11.120;2023-02-11T04:57:36;99197.00;;;-0.90
18219;BMP180;9234;49.344;11.120;2023-02-11T05:00:08;99208.00;;;-0.90
18219;BMP180;9234;49.344;11.120;2023-02-11T05:02:36;99185.00;;;-0.90
18219;BMP180;9234;49.344;11.120;2023-02-11T05:05:05;99190.00;;;-0.80
18219;BMP180;9234;49.344;11.120;2023-02-11T05:07:33;99191.00;;;-0.80
18219;BMP180;9234;49.344;11.120;2023-02-11T05:10:02;99202.00;;;-0.70
18219;BMP180;9234;49.344;11.120;2023-02-11T05:12:30;99183.00;;;-0.70
18219;BMP180;9234;49.344;11.120;2023-02-11T05:14:59;99176.00;;;-0.60
18219;BMP180;9234;49.344;11.120;2023-02-11T05:17:28;99195.00;;;-0.60
18219;BMP180;9234;49.344;11.120;2023-02-11T05:19:56;99217.00;;;-0.50
18219;BMP180;9234;49.344;11.120;2023-02-11T05:22:24;99222.00;;;-0.50
18219;BMP180;9234;49.344;11.120;2023-02-11T05:24:53;99221.00;;;-0.50
18219;BMP180;9234;49.344;11.120;2023-02-11T05:27:21;99215.00;;;-0.40
18219;BMP180;9234;49.344;11.120;2023-02-11T05:29:49;99203.00;;;-0.40
18219;BMP180;9234;49.344;11.120;2023-02-11T05:32:17;99231.00;;;-0.40
18219;BMP180;9234;49.344;11.120;2023-02-11T05:34:47;99211.00;;;-0.40
18219;BMP180;9234;49.344;11.120;2023-02-11T05:37:15;99198.00;;;-0.30
18219;BMP180;9234;49.344;11.120;2023-02-11T05:39:43;99177.00;;;-0.30
18219;BMP180;9234;49.344;11.120;2023-02-11T05:42:12;99189.00;;;-0.30
18219;BMP180;9234;49.344;11.120;2023-02-11T05:44:40;99177.00;;;-0.30
18219;BMP180;9234;49.344;11.120;2023-02-11T05:47:08;99185.00;;;-0.30
18219;BMP180;9234;49.344;11.120;2023-02-11T05:49:37;99203.00;;;-0.30
18219;BMP180;9234;49.344;11.120;2023-02-11T05:52:06;99211.00;;;-0.40
18219;BMP180;9234;49.344;11.120;2023-02-11T05:54:34;99215.00;;;-0.40
18219;BMP180;9234;49.344;11.120;2023-02-11T05:57:03;99207.00;;;-0.40
18219;BMP180;9234;49.344;11.120;2023-02-11T05:59:31;99196.00;;;-0.30
18219;BMP180;9234;49.344;11.120;2023-02-11T06:01:59;99185.00;;;-0.30
18219;BMP180;9234;49.344;11.120;2023-02-11T06:04:28;99172.00;;;-0.20
18219;BMP180;9234;49.344;11.120;2023-02-11T06:06:56;99179.00;;;-0.10
18219;BMP180;9234;49.344;11.120;2023-02-11T06:09:26;99201.00;;;-0.10
18219;BMP180;9234;49.344;11.120;2023-02-11T06:11:54;99186.00;;;-0.10
18219;BMP180;9234;49.344;11.120;2023-02-11T06:14:22;99188.00;;;0.00
18219;BMP180;9234;49.344;11.120;2023-02-11T06:16:50;99187.00;;;0.10
18219;BMP180;9234;49.344;11.120;2023-02-11T06:19:18;99189.00;;;0.10
18219;BMP180;9234;49.344;11.120;2023-02-11T06:21:47;99191.00;;;0.20
18219;BMP180;9234;49.344;11.120;2023-02-11T06:24:15;99188.00;;;0.20
18219;BMP180;9234;49.344;11.120;2023-02-11T06:27:05;99192.00;;;0.20
18219;BMP180;9234;49.344;11.120;2023-02-11T06:29:33;99172.00;;;0.20
18219;BMP180;9234;49.344;11.120;2023-02-11T06:32:01;99189.00;;;0.20
18219;BMP180;9234;49.344;11.120;2023-02-11T06:34:30;99171.00;;;0.20
18219;BMP180;9234;49.344;11.120;2023-02-11T06:36:58;99168.00;;;0.20
18219;BMP180;9234;49.344;11.120;2023-02-11T06:39:26;99148.00;;;0.20
18219;BMP180;9234;49.344;11.120;2023-02-11T06:41:55;99172.00;;;0.20
18219;BMP180;9234;49.344;11.120;2023-02-11T06:44:24;99202.00;;;0.20
18219;BMP180;9234;49.344;11.120;2023-02-11T06:46:52;99188.00;;;0.10
18219;BMP180;9234;49.344;11.120;2023-02-11T06:49:21;99185.00;;;0.10
18219;BMP180;9234;49.344;11.120;2023-02-11T06:51:49;99186.00;;;0.00
18219;BMP180;9234;49.344;11.120;2023-02-11T06:54:17;99183.00;;;0.00
18219;BMP180;9234;49.344;11.120;2023-02-11T06:56:45;99179.00;;;0.00
18219;BMP180;9234;49.344;11.120;2023-02-11T06:59:15;99190.00;;;-0.10
18219;BMP180;9234;49.344;11.120;2023-02-11T07:01:46;99182.00;;;-0.10
18219;BMP180;9234;49.344;11.120;2023-02-11T07:04:14;99195.00;;;-0.10
18219;BMP180;9234;49.344;11.120;2023-02-11T07:06:43;99195.00;;;0.00
18219;BMP180;9234;49.344;11.120;2023-02-11T07:09:11;99201.00;;;0.00
18219;BMP180;9234;49.344;11.120;2023-02-11T07:11:39;99210.00;;;0.10
18219;BMP180;9234;49.344;11.120;2023-02-11T07:14:08;99208.00;;;0.10
18219;BMP180;9234;49.344;11.120;2023-02-11T07:16:39;99189.00;;;0.20
18219;BMP180;9234;49.344;11.120;2023-02-11T07:19:09;99196.00;;;0.30
18219;BMP180;9234;49.344;11.120;2023-02-11T07:21:37;99198.00;;;0.30
18219;BMP180;9234;49.344;11.120;2023-02-11T07:24:07;99189.00;;;0.30
18219;BMP180;9234;49.344;11.120;2023-02-11T07:26:37;99190.00;;;0.30
18219;BMP180;9234;49.344;11.120;2023-02-11T07:29:05;99199.00;;;0.40
18219;BMP180;9234;49.344;11.120;2023-02-11T07:31:34;99213.00;;;0.30
18219;BMP180;9234;49.344;11.120;2023-02-11T07:34:02;99214.00;;;0.30
18219;BMP180;9234;49.344;11.120;2023-02-11T07:36:32;99215.00;;;0.30
18219;BMP180;9234;49.344;11.120;2023-02-11T07:39:00;99199.00;;;0.30
18219;BMP180;9234;49.344;11.120;2023-02-11T07:41:28;99184.00;;;0.30
18219;BMP180;9234;49.344;11.120;2023-02-11T07:43:57;99201.00;;;0.40
18219;BMP180;9234;49.344;11.120;2023-02-11T07:46:26;99199.00;;;0.50
18219;BMP180;9234;49.344;11.120;2023-02-11T07:48:54;99204.00;;;0.70
18219;BMP180;9234;49.344;11.120;2023-02-11T07:51:26;99209.00;;;0.90
18219;BMP180;9234;49.344;11.120;2023-02-11T07:53:58;99213.00;;;1.20
18219;BMP180;9234;49.344;11.120;2023-02-11T07:56:27;99219.00;;;1.40
18219;BMP180;9234;49.344;11.120;2023-02-11T07:59:01;99224.00;;;1.60
18219;BMP180;9234;49.344;11.120;2023-02-11T08:01:30;99218.00;;;1.80
18219;BMP180;9234;49.344;11.120;2023-02-11T08:04:00;99218.00;;;1.90
18219;BMP180;9234;49.344;11.120;2023-02-11T08:06:32;99229.00;;;2.10
18219;BMP180;9234;49.344;11.120;2023-02-11T08:09:06;99221.00;;;2.20
18219;BMP180;9234;49.344;11.120;2023-02-11T08:11:35;99227.00;;;2.40
18219;BMP180;9234;49.344;11.120;2023-02-11T08:14:03;99216.00;;;2.50
18219;BMP180;9234;49.344;11.120;2023-02-11T08:16:34;99227.00;;;2.70
18219;BMP180;9234;49.344;11.120;2023-02-11T08:19:06;99236.00;;;2.90
18219;BMP180;9234;49.344;11.120;2023-02-11T08:21:34;99228.00;;;3.10
18219;BMP180;9234;49.344;11.120;2023-02-11T08:24:05;99221.00;;;3.30
18219;BMP180;9234;49.344;11.120;2023-02-11T08:26:35;99231.00;;;3.50
18219;BMP180;9234;49.344;11.120;2023-02-11T08:29:08;99229.00;;;3.70
18219;BMP180;9234;49.344;11.120;2023-02-11T08:31:40;99208.00;;;3.70
18219;BMP180;9234;49.344;11.120;2023-02-11T08:34:10;99213.00;;;3.90
18219;BMP180;9234;49.344;11.120;2023-02-11T08:36:41;99217.00;;;4.00
18219;BMP180;9234;49.344;11.120;2023-02-11T08:39:15;99215.00;;;4.10
18219;BMP180;9234;49.344;11.120;2023-02-11T08:41:47;99202.00;;;4.20
18219;BMP180;9234;49.344;11.120;2023-02-11T08:44:17;99215.00;;;4.30
18219;BMP180;9234;49.344;11.120;2023-02-11T08:46:46;99210.00;;;4.40
18219;BMP180;9234;49.344;11.120;2023-02-11T08:49:15;99219.00;;;4.50
18219;BMP180;9234;49.344;11.120;2023-02-11T08:51:44;99209.00;;;4.70
18219;BMP180;9234;49.344;11.120;2023-02-11T08:54:14;99206.00;;;4.80
18219;BMP180;9234;49.344;11.120;2023-02-11T08:56:43;99198.00;;;4.90
18219;BMP180;9234;49.344;11.120;2023-02-11T08:59:13;99206.00;;;4.90
18219;BMP180;9234;49.344;11.120;2023-02-11T09:01:43;99195.00;;;5.00
18219;BMP180;9234;49.344;11.120;2023-02-11T09:04:13;99213.00;;;5.10
18219;BMP180;9234;49.344;11.120;2023-02-11T09:06:41;99212.00;;;5.20
18219;BMP180;9234;49.344;11.120;2023-02-11T09:09:12;99213.00;;;5.30
18219;BMP180;9234;49.344;11.120;2023-02-11T09:11:44;99215.00;;;5.30
18219;BMP180;9234;49.344;11.120;2023-02-11T09:14:17;99229.00;;;5.50
18219;BMP180;9234;49.344;11.120;2023-02-11T09:16:47;99220.00;;;5.50
18219;BMP180;9234;49.344;11.120;2023-02-11T09:19:17;99211.00;;;5.60
18219;BMP180;9234;49.344;11.120;2023-02-11T09:21:46;99204.00;;;5.70
18219;BMP180;9234;49.344;11.120;2023-02-11T09:24:15;99206.00;;;5.70
18219;BMP180;9234;49.344;11.120;2023-02-11T09:26:46;99197.00;;;5.70
18219;BMP180;9234;49.344;11.120;2023-02-11T09:29:15;99210.00;;;5.80
18219;BMP180;9234;49.344;11.120;2023-02-11T09:31:43;99203.00;;;5.90
18219;BMP180;9234;49.344;11.120;2023-02-11T09:34:12;99206.00;;;6.00
18219;BMP180;9234;49.344;11.120;2023-02-11T09:36:41;99221.00;;;6.10
18219;BMP180;9234;49.344;11.120;2023-02-11T09:39:13;99209.00;;;6.20
18219;BMP180;9234;49.344;11.120;2023-02-11T09:42:09;99208.00;;;6.30
18219;BMP180;9234;49.344;11.120;2023-02-11T09:44:45;99207.00;;;6.20
18219;BMP180;9234;49.344;11.120;2023-02-11T09:47:24;99214.00;;;6.20
18219;BMP180;9234;49.344;11.120;2023-02-11T09:49:59;99209.00;;;6.20
18219;BMP180;9234;49.344;11.120;2023-02-11T09:52:37;99216.00;;;6.20
18219;BMP180;9234;49.344;11.120;2023-02-11T09:55:18;99226.00;;;6.30
18219;BMP180;9234;49.344;11.120;2023-02-11T09:57:49;99209.00;;;6.30
18219;BMP180;9234;49.344;11.120;2023-02-11T10:00:23;99214.00;;;6.40
18219;BMP180;9234;49.344;11.120;2023-02-11T10:03:13;99211.00;;;6.40
18219;BMP180;9234;49.344;11.120;2023-02-11T10:09:06;99213.00;;;6.90
18219;BMP180;9234;49.344;11.120;2023-02-11T10:11:50;99203.00;;;7.20
18219;BMP180;9234;49.344;11.120;2023-02-11T10:14:53;99218.00;;;7.40
18219;BMP180;9234;49.344;11.120;2023-02-11T10:17:39;99221.00;;;7.60
18219;BMP180;9234;49.344;11.120;2023-02-11T10:20:24;99230.00;;;7.80
18219;BMP180;9234;49.344;11.120;2023-02-11T10:22:58;99225.00;;;7.90
18219;BMP180;9234;49.344;11.120;2023-02-11T10:25:33;99227.00;;;8.10
18219;BMP180;9234;49.344;11.120;2023-02-11T10:28:13;99229.00;;;8.30
18219;BMP180;9234;49.344;11.120;2023-02-11T10:30:55;99224.00;;;8.30
18219;BMP180;9234;49.344;11.120;2023-02-11T10:33:28;99218.00;;;8.30
18219;BMP180;9234;49.344;11.120;2023-02-11T10:35:58;99227.00;;;8.20
18219;BMP180;9234;49.344;11.120;2023-02-11T10:38:27;99222.00;;;8.30
18219;BMP180;9234;49.344;11.120;2023-02-11T10:40:55;99223.00;;;8.40
18219;BMP180;9234;49.344;11.120;2023-02-11T10:43:27;99224.00;;;8.60
18219;BMP180;9234;49.344;11.120;2023-02-11T10:46:01;99215.00;;;8.90
18219;BMP180;9234;49.344;11.120;2023-02-11T10:48:42;99224.00;;;9.00
18219;BMP180;9234;49.344;11.120;2023-02-11T10:51:19;99232.00;;;9.20
18219;BMP180;9234;49.344;11.120;2023-02-11T10:53:50;99222.00;;;9.30
18219;BMP180;9234;49.344;11.120;2023-02-11T10:56:44;99220.00;;;9.50
18219;BMP180;9234;49.344;11.120;2023-02-11T10:59:19;99208.00;;;9.60
18219;BMP180;9234;49.344;11.120;2023-02-11T11:01:57;99208.00;;;9.70
18219;BMP180;9234;49.344;11.120;2023-02-11T11:04:46;99203.00;;;9.60
18219;BMP180;9234;49.344;11.120;2023-02-11T11:07:21;99203.00;;;9.50
18219;BMP180;9234;49.344;11.120;2023-02-11T11:09:53;99215.00;;;9.30
18219;BMP180;9234;49.344;11.120;2023-02-11T11:12:36;99207.00;;;9.20
18219;BMP180;9234;49.344;11.120;2023-02-11T11:15:21;99219.00;;;9.20
18219;BMP180;9234;49.344;11.120;2023-02-11T11:18:12;99207.00;;;9.40
18219;BMP180;9234;49.344;11.120;2023-02-11T11:20:57;99209.00;;;9.60
18219;BMP180;9234;49.344;11.120;2023-02-11T11:23:28;99217.00;;;9.70
18219;BMP180;9234;49.344;11.120;2023-02-11T11:26:05;99217.00;;;9.90
18219;BMP180;9234;49.344;11.120;2023-02-11T11:28:39;99209.00;;;10.10
18219;BMP180;9234;49.344;11.120;2023-02-11T11:31:16;99200.00;;;10.20
18219;BMP180;9234;49.344;11.120;2023-02-11T11:33:50;99206.00;;;10.20
18219;BMP180;9234;49.344;11.120;2023-02-11T11:36:22;99216.00;;;10.00
18219;BMP180;9234;49.344;11.120;2023-02-11T11:38:57;99208.00;;;10.00
18219;BMP180;9234;49.344;11.120;2023-02-11T11:41:28;99208.00;;;9.90
18219;BMP180;9234;49.344;11.120;2023-02-11T11:44:02;99208.00;;;9.90
18219;BMP180;9234;49.344;11.120;2023-02-11T11:46:35;99196.00;;;9.70
18219;BMP180;9234;49.344;11.120;2023-02-11T11:49:27;99208.00;;;9.60
18219;BMP180;9234;49.344;11.120;2023-02-11T11:52:08;99195.00;;;9.50
18219;BMP180;9234;49.344;11.120;2023-02-11T11:54:39;99210.00;;;9.40
18219;BMP180;9234;49.344;11.120;2023-02-11T11:57:14;99206.00;;;9.30
18219;BMP180;9234;49.344;11.120;2023-02-11T11:59:43;99206.00;;;9.30
18219;BMP180;9234;49.344;11.120;2023-02-11T12:02:39;99190.00;;;9.20
18219;BMP180;9234;49.344;11.120;2023-02-11T12:05:22;99192.00;;;9.20
18219;BMP180;9234;49.344;11.120;2023-02-11T12:08:05;99195.00;;;9.20
18219;BMP180;9234;49.344;11.120;2023-02-11T12:11:00;99189.00;;;9.20
18219;BMP180;9234;49.344;11.120;2023-02-11T12:13:51;99200.00;;;9.20
18219;BMP180;9234;49.344;11.120;2023-02-11T12:16:36;99185.00;;;9.20
18219;BMP180;9234;49.344;11.120;2023-02-11T12:19:45;99190.00;;;9.20
18219;BMP180;9234;49.344;11.120;2023-02-11T12:22:35;99181.00;;;9.30
18219;BMP180;9234;49.344;11.120;2023-02-11T12:25:24;99181.00;;;9.50
18219;BMP180;9234;49.344;11.120;2023-02-11T12:28:11;99174.00;;;9.50
18219;BMP180;9234;49.344;11.120;2023-02-11T12:30:59;99186.00;;;9.60
18219;BMP180;9234;49.344;11.120;2023-02-11T12:33:55;99183.00;;;9.70
18219;BMP180;9234;49.344;11.120;2023-02-11T12:36:49;99182.00;;;9.70
18219;BMP180;9234;49.344;11.120;2023-02-11T12:39:41;99179.00;;;9.70
18219;BMP180;9234;49.344;11.120;2023-02-11T12:42:36;99172.00;;;9.70
18219;BMP180;9234;49.344;11.120;2023-02-11T12:45:44;99165.00;;;9.80
18219;BMP180;9234;49.344;11.120;2023-02-11T12:48:38;99173.00;;;9.80
18219;BMP180;9234;49.344;11.120;2023-02-11T12:51:25;99170.00;;;9.90
18219;BMP180;9234;49.344;11.120;2023-02-11T12:54:18;99164.00;;;9.90
18219;BMP180;9234;49.344;11.120;2023-02-11T12:56:56;99158.00;;;9.90
18219;BMP180;9234;49.344;11.120;2023-02-11T12:59:39;99160.00;;;10.00
18219;BMP180;9234;49.344;11.120;2023-02-11T13:02:22;99168.00;;;10.00
18219;BMP180;9234;49.344;11.120;2023-02-11T13:04:56;99156.00;;;10.00
18219;BMP180;9234;49.344;11.120;2023-02-11T13:07:31;99156.00;;;10.00
18219;BMP180;9234;49.344;11.120;2023-02-11T13:10:18;99155.00;;;9.90
18219;BMP180;9234;49.344;11.120;2023-02-11T13:12:52;99165.00;;;9.90
18219;BMP180;9234;49.344;11.120;2023-02-11T13:15:41;99164.00;;;9.90
18219;BMP180;9234;49.344;11.120;2023-02-11T13:18:29;99163.00;;;9.90
18219;BMP180;9234;49.344;11.120;2023-02-11T13:21:24;99151.00;;;9.80
18219;BMP180;9234;49.344;11.120;2023-02-11T13:24:08;99156.00;;;9.80
18219;BMP180;9234;49.344;11.120;2023-02-11T13:26:47;99151.00;;;9.80
18219;BMP180;9234;49.344;11.120;2023-02-11T13:29:28;99159.00;;;9.80
18219;BMP180;9234;49.344;11.120;2023-02-11T13:32:07;99147.00;;;9.80
18219;BMP180;9234;49.344;11.120;2023-02-11T13:34:55;99163.00;;;9.80
18219;BMP180;9234;49.344;11.120;2023-02-11T13:37:28;99153.00;;;9.90
18219;BMP180;9234;49.344;11.120;2023-02-11T13:40:00;99154.00;;;10.00
18219;BMP180;9234;49.344;11.120;2023-02-11T13:42:31;99147.00;;;10.00
18219;BMP180;9234;49.344;11.120;2023-02-11T13:45:16;99159.00;;;10.00
18219;BMP180;9234;49.344;11.120;2023-02-11T13:47:45;99170.00;;;9.90
18219;BMP180;9234;49.344;11.120;2023-02-11T13:50:22;99166.00;;;10.00
18219;BMP180;9234;49.344;11.120;2023-02-11T13:52:57;99170.00;;;10.00
18219;BMP180;9234;49.344;11.120;2023-02-11T13:55:28;99174.00;;;10.00
18219;BMP180;9234;49.344;11.120;2023-02-11T13:58:18;99166.00;;;9.90
18219;BMP180;9234;49.344;11.120;2023-02-11T14:01:03;99166.00;;;9.90
18219;BMP180;9234;49.344;11.120;2023-02-11T14:03:38;99171.00;;;9.80
18219;BMP180;9234;49.344;11.120;2023-02-11T14:07:26;99164.00;;;9.80
18219;BMP180;9234;49.344;11.120;2023-02-11T14:10:49;99173.00;;;9.80
18219;BMP180;9234;49.344;11.120;2023-02-11T14:13:24;99169.00;;;9.70
18219;BMP180;9234;49.344;11.120;2023-02-11T14:16:05;99163.00;;;9.70
18219;BMP180;9234;49.344;11.120;2023-02-11T14:18:58;99159.00;;;9.70
18219;BMP180;9234;49.344;11.120;2023-02-11T14:21:37;99168.00;;;9.60
18219;BMP180;9234;49.344;11.120;2023-02-11T14:24:51;99156.00;;;9.50
18219;BMP180;9234;49.344;11.120;2023-02-11T14:27:28;99151.00;;;9.50
18219;BMP180;9234;49.344;11.120;2023-02-11T14:30:18;99167.00;;;9.60
18219;BMP180;9234;49.344;11.120;2023-02-11T14:33:19;99161.00;;;9.60
18219;BMP180;9234;49.344;11.120;2023-02-11T14:36:01;99160.00;;;9.70
18219;BMP180;9234;49.344;11.120;2023-02-11T14:38:47;99162.00;;;9.80
18219;BMP180;9234;49.344;11.120;2023-02-11T14:41:24;99139.00;;;9.80
18219;BMP180;9234;49.344;11.120;2023-02-11T14:43:56;99151.00;;;9.70
18219;BMP180;9234;49.344;11.120;2023-02-11T14:46:27;99163.00;;;9.60
18219;BMP180;9234;49.344;11.120;2023-02-11T14:49:02;99153.00;;;9.50
18219;BMP180;9234;49.344;11.120;2023-02-11T14:51:37;99161.00;;;9.30
18219;BMP180;9234;49.344;11.120;2023-02-11T14:54:13;99152.00;;;9.30
18219;BMP180;9234;49.344;11.120;2023-02-11T14:56:45;99155.00;;;9.20
18219;BMP180;9234;49.344;11.120;2023-02-11T14:59:18;99161.00;;;9.20
18219;BMP180;9234;49.344;11.120;2023-02-11T15:01:50;99155.00;;;9.20
18219;BMP180;9234;49.344;11.120;2023-02-11T15:04:26;99157.00;;;9.20
18219;BMP180;9234;49.344;11.120;2023-02-11T15:06:57;99160.00;;;9.20
18219;BMP180;9234;49.344;11.120;2023-02-11T15:09:36;99163.00;;;9.10
18219;BMP180;9234;49.344;11.120;2023-02-11T15:12:17;99162.00;;;9.10